sensor_id;sensor_type;location;lat;lon;timestamp;pressure;altitude;pressure_sealevel;temperature;humidity
19843;BME280;10082;51.038;6.992;2023-05-23T00:01:05;-17616.84;;;-144.33;100.00
19843;BME280;10082;51.038;6.992;2023-05-23T00:03:33;-17616.84;;;-144.33;100.00
19843;BME280;10082;51.038;6.992;2023-05-23T00:06:01;-17616.84;;;-144.33;100.00
19843;BME280;10082;51.038;6.992;2023-05-23T00:08:29;-17616.84;;;-144.33;100.00
19843;BME280;10082;51.038;6.992;2023-05-23T00:10:56;-17616.84;;;-144.33;100.00
19843;BME280;10082;51.038;6.992;2023-05-23T00:13:25;-17616.84;;;-144.33;100.00
19843;BME280;10082;51.038;6.992;2023-05-23T00:15:52;-17616.84;;;-144.33;100.00
19843;BME280;10082;51.038;6.992;2023-05-23T00:18:19;-17616.84;;;-144.33;100.00
19843;BME280;10082;51.038;6.992;2023-05-23T00:20:49;-17616.84;;;-144.33;100.00
19843;BME280;10082;51.038;6.992;2023-05-23T00:23:16;-17616.84;;;-144.33;100.00
19843;BME280;10082;51.038;6.992;2023-05-23T00:25:45;-17616.84;;;-144.33;100.00
19843;BME280;10082;51.038;6.992;2023-05-23T00:28:18;-17616.84;;;-144.33;100.00
19843;BME280;10082;51.038;6.992;2023-05-23T00:30:47;-17616.84;;;-144.33;100.00
19843;BME280;10082;51.038;6.992;2023-05-23T00:33:15;-17616.84;;;-144.33;100.00
19843;BME280;10082;51.038;6.992;2023-05-23T00:35:46;-17616.84;;;-144.33;100.00
19843;BME280;10082;51.038;6.992;2023-05-23T00:38:13;-17616.84;;;-144.33;100.00
19843;BME280;10082;51.038;6.992;2023-05-23T00:40:40;-17616.84;;;-144.33;100.00
19843;BME280;10082;51.038;6.992;2023-05-23T00:43:08;-17616.84;;;-144.33;100.00
19843;BME280;10082;51.038;6.992;2023-05-23T00:45:35;-17616.84;;;-144.33;100.00
19843;BME280;10082;51.038;6.992;2023-05-23T00:48:05;-17616.84;;;-144.33;100.00
19843;BME280;10082;51.038;6.992;2023-05-23T00:50:34;-17616.84;;;-144.33;100.00
19843;BME280;10082;51.038;6.992;2023-05-23T00:53:08;-17616.84;;;-144.33;100.00
19843;BME280;10082;51.038;6.992;2023-05-23T00:55:36;-17616.84;;;-144.33;100.00
19843;BME280;10082;51.038;6.992;2023-05-23T00:58:04;-17616.84;;;-144.33;100.00
19843;BME280;10082;51.038;6.992;2023-05-23T01:00:31;-17616.84;;;-144.33;100.00
19843;BME280;10082;51.038;6.992;2023-05-23T01:02:59;-17616.84;;;-144.33;100.00
19843;BME280;10082;51.038;6.992;2023-05-23T01:05:29;-17616.84;;;-144.33;100.00
19843;BME280;10082;51.038;6.992;2023-05-23T01:07:56;-17616.84;;;-144.33;100.00
19843;BME280;10082;51.038;6.992;2023-05-23T01:10:26;-17616.84;;;-144.33;100.00
19843;BME280;10082;51.038;6.992;2023-05-23T01:13:03;-17616.84;;;-144.33;100.00
19843;BME280;10082;51.038;6.992;2023-05-23T01:15:37;-17616.84;;;-144.33;100.00
19843;BME280;10082;51.038;6.992;2023-05-23T01:18:09;-17616.84;;;-144.33;100.00
19843;BME280;10082;51.038;6.992;2023-05-23T01:20:46;-17616.84;;;-144.33;100.00
19843;BME280;10082;51.038;6.992;2023-05-23T01:23:42;-17616.84;;;-144.33;100.00
19843;BME280;10082;51.038;6.992;2023-05-23T01:26:21;-17616.84;;;-144.33;100.00
19843;BME280;10082;51.038;6.992;2023-05-23T01:29:00;-17616.84;;;-144.33;100.00
19843;BME280;10082;51.038;6.992;2023-05-23T01:31:35;-17616.84;;;-144.33;100.00
19843;BME280;10082;51.038;6.992;2023-05-23T01:34:04;-17616.84;;;-144.33;100.00
19843;BME280;10082;51.038;6.992;2023-05-23T01:36:32;-17616.84;;;-144.33;100.00
19843;BME280;10082;51.038;6.992;2023-05-23T01:39:01;-17616.84;;;-144.33;100.00
19843;BME280;10082;51.038;6.992;2023-05-23T01:41:28;-17616.84;;;-144.33;100.00
19843;BME280;10082;51.038;6.992;2023-05-23T01:43:57;-17616.84;;;-144.33;100.00
19843;BME280;10082;51.038;6.992;2023-05-23T01:46:26;-17616.84;;;-144.33;100.00
19843;BME280;10082;51.038;6.992;2023-05-23T01:48:55;-17616.84;;;-144.33;100.00
19843;BME280;10082;51.038;6.992;2023-05-23T01:51:24;-17616.84;;;-144.33;100.00
19843;BME280;10082;51.038;6.992;2023-05-23T01:53:52;-17616.84;;;-144.33;100.00
19843;BME280;10082;51.038;6.992;2023-05-23T01:56:26;-17616.84;;;-144.33;100.00
19843;BME280;10082;51.038;6.992;2023-05-23T01:58:53;-17616.84;;;-144.33;100.00
19843;BME280;10082;51.038;6.992;2023-05-23T02:01:23;-17616.84;;;-144.33;100.00
19843;BME280;10082;51.038;6.992;2023-05-23T02:03:50;-17616.84;;;-144.33;100.00
19843;BME280;10082;51.038;6.992;2023-05-23T02:06:17;-17616.84;;;-144.33;100.00
19843;BME280;10082;51.038;6.992;2023-05-23T02:08:45;-17616.84;;;-144.33;100.00
19843;BME280;10082;51.038;6.992;2023-05-23T02:11:13;-17616.84;;;-144.33;100.00
19843;BME280;10082;51.038;6.992;2023-05-23T02:13:40;-17616.84;;;-144.33;100.00
19843;BME280;10082;51.038;6.992;2023-05-23T02:16:08;-17616.84;;;-144.33;100.00
19843;BME280;10082;51.038;6.992;2023-05-23T02:18:41;-17616.84;;;-144.33;100.00
19843;BME280;10082;51.038;6.992;2023-05-23T02:21:11;-17616.84;;;-144.33;100.00
19843;BME280;10082;51.038;6.992;2023-05-23T02:23:38;-17616.84;;;-144.33;100.00
19843;BME280;10082;51.038;6.992;2023-05-23T02:26:07;-17616.84;;;-144.33;100.00
19843;BME280;10082;51.038;6.992;2023-05-23T02:28:35;-17616.84;;;-144.33;100.00
19843;BME280;10082;51.038;6.992;2023-05-23T02:31:02;-17616.84;;;-144.33;100.00
19843;BME280;10082;51.038;6.992;2023-05-23T02:33:29;-17616.84;;;-144.33;100.00
19843;BME280;10082;51.038;6.992;2023-05-23T02:35:58;-17616.84;;;-144.33;100.00
19843;BME280;10082;51.038;6.992;2023-05-23T02:38:26;-17616.84;;;-144.33;100.00
19843;BME280;10082;51.038;6.992;2023-05-23T02:40:56;-17616.84;;;-144.33;100.00
19843;BME280;10082;51.038;6.992;2023-05-23T02:43:23;-17616.84;;;-144.33;100.00
19843;BME280;10082;51.038;6.992;2023-05-23T02:45:50;-17616.84;;;-144.33;100.00
19843;BME280;10082;51.038;6.992;2023-05-23T02:48:17;-17616.84;;;-144.33;100.00
19843;BME280;10082;51.038;6.992;2023-05-23T02:50:45;-17616.84;;;-144.33;100.00
19843;BME280;10082;51.038;6.992;2023-05-23T02:53:14;-17616.84;;;-144.33;100.00
19843;BME280;10082;51.038;6.992;2023-05-23T02:55:41;-17616.84;;;-144.33;100.00
19843;BME280;10082;51.038;6.992;2023-05-23T02:58:08;-17616.84;;;-144.33;100.00
19843;BME280;10082;51.038;6.992;2023-05-23T03:00:36;-17616.84;;;-144.33;100.00
19843;BME280;10082;51.038;6.992;2023-05-23T03:03:10;-17616.84;;;-144.33;100.00
19843;BME280;10082;51.038;6.992;2023-05-23T03:05:37;-17616.84;;;-144.33;100.00
19843;BME280;10082;51.038;6.992;2023-05-23T03:08:04;-17616.84;;;-144.33;100.00
19843;BME280;10082;51.038;6.992;2023-05-23T03:10:33;-17616.84;;;-144.33;100.00
19843;BME280;10082;51.038;6.992;2023-05-23T03:13:00;-17616.84;;;-144.33;100.00
19843;BME280;10082;51.038;6.992;2023-05-23T03:15:28;-17616.84;;;-144.33;100.00
19843;BME280;10082;51.038;6.992;2023-05-23T03:17:56;-17616.84;;;-144.33;100.00
19843;BME280;10082;51.038;6.992;2023-05-23T03:20:23;-17616.84;;;-144.33;100.00
19843;BME280;10082;51.038;6.992;2023-05-23T03:22:50;-17616.84;;;-144.33;100.00
19843;BME280;10082;51.038;6.992;2023-05-23T03:25:20;-17616.84;;;-144.33;100.00
19843;BME280;10082;51.038;6.992;2023-05-23T03:27:49;-17616.84;;;-144.33;100.00
19843;BME280;10082;51.038;6.992;2023-05-23T03:30:16;-17616.84;;;-144.33;100.00
19843;BME280;10082;51.038;6.992;2023-05-23T03:32:43;-17616.84;;;-144.33;100.00
19843;BME280;10082;51.038;6.992;2023-05-23T03:35:11;-17616.84;;;-144.33;100.00
19843;BME280;10082;51.038;6.992;2023-05-23T03:37:38;-17616.84;;;-144.33;100.00
19843;BME280;10082;51.038;6.992;2023-05-23T03:40:07;-17616.84;;;-144.33;100.00
19843;BME280;10082;51.038;6.992;2023-05-23T03:42:35;-17616.84;;;-144.33;100.00
19843;BME280;10082;51.038;6.992;2023-05-23T03:45:05;-17616.84;;;-144.33;100.00
19843;BME280;10082;51.038;6.992;2023-05-23T03:47:38;-17616.84;;;-144.33;100.00
19843;BME280;10082;51.038;6.992;2023-05-23T03:50:08;-17616.84;;;-144.33;100.00
19843;BME280;10082;51.038;6.992;2023-05-23T03:52:36;-17616.84;;;-144.33;100.00
19843;BME280;10082;51.038;6.992;2023-05-23T03:55:04;-17616.84;;;-144.33;100.00
19843;BME280;10082;51.038;6.992;2023-05-23T03:57:31;-17616.84;;;-144.33;100.00
19843;BME280;10082;51.038;6.992;2023-05-23T03:59:58;-17616.84;;;-144.33;100.00
19843;BME280;10082;51.038;6.992;2023-05-23T04:02:26;-17616.84;;;-144.33;100.00
19843;BME280;10082;51.038;6.992;2023-05-23T04:04:54;-17616.84;;;-144.33;100.00
19843;BME280;10082;51.038;6.992;2023-05-23T04:07:22;-17616.84;;;-144.33;100.00
19843;BME280;10082;51.038;6.992;2023-05-23T04:09:51;-17616.84;;;-144.33;100.00
19843;BME280;10082;51.038;6.992;2023-05-23T04:12:19;-17616.84;;;-144.33;100.00
19843;BME280;10082;51.038;6.992;2023-05-23T04:14:46;-17616.84;;;-144.33;100.00
19843;BME280;10082;51.038;6.992;2023-05-23T04:17:15;-17616.84;;;-144.33;100.00
19843;BME280;10082;51.038;6.992;2023-05-23T04:19:44;-17616.84;;;-144.33;100.00
19843;BME280;10082;51.038;6.992;2023-05-23T04:22:11;-17616.84;;;-144.33;100.00
19843;BME280;10082;51.038;6.992;2023-05-23T04:24:38;-17616.84;;;-144.33;100.00
19843;BME280;10082;51.038;6.992;2023-05-23T04:27:05;-17616.84;;;-144.33;100.00
19843;BME280;10082;51.038;6.992;2023-05-23T04:29:33;-17616.84;;;-144.33;100.00
19843;BME280;10082;51.038;6.992;2023-05-23T04:32:00;-17616.84;;;-144.33;100.00
19843;BME280;10082;51.038;6.992;2023-05-23T04:34:28;-17616.84;;;-144.33;100.00
19843;BME280;10082;51.038;6.992;2023-05-23T04:36:59;-17616.84;;;-144.33;100.00
19843;BME280;10082;51.038;6.992;2023-05-23T04:39:27;-17616.84;;;-144.33;100.00
19843;BME280;10082;51.038;6.992;2023-05-23T04:42:14;-17616.84;;;-144.33;100.00
19843;BME280;10082;51.038;6.992;2023-05-23T04:45:05;-17616.84;;;-144.33;100.00
19843;BME280;10082;51.038;6.992;2023-05-23T04:47:54;-17616.84;;;-144.33;100.00
19843;BME280;10082;51.038;6.992;2023-05-23T04:50:33;-17616.84;;;-144.33;100.00
19843;BME280;10082;51.038;6.992;2023-05-23T04:53:04;-17616.84;;;-144.33;100.00
19843;BME280;10082;51.038;6.992;2023-05-23T04:55:32;-17616.84;;;-144.33;100.00
19843;BME280;10082;51.038;6.992;2023-05-23T04:58:08;-17616.84;;;-144.33;100.00
19843;BME280;10082;51.038;6.992;2023-05-23T05:00:35;-17616.84;;;-144.33;100.00
19843;BME280;10082;51.038;6.992;2023-05-23T05:03:03;-17616.84;;;-144.33;100.00
19843;BME280;10082;51.038;6.992;2023-05-23T05:05:31;-17616.84;;;-144.33;100.00
19843;BME280;10082;51.038;6.992;2023-05-23T05:07:58;-17616.84;;;-144.33;100.00
19843;BME280;10082;51.038;6.992;2023-05-23T05:10:27;-17616.84;;;-144.33;100.00
19843;BME280;10082;51.038;6.992;2023-05-23T05:12:54;-17616.84;;;-144.33;100.00
19843;BME280;10082;51.038;6.992;2023-05-23T05:15:21;-17616.84;;;-144.33;100.00
19843;BME280;10082;51.038;6.992;2023-05-23T05:17:52;-17616.84;;;-144.33;100.00
19843;BME280;10082;51.038;6.992;2023-05-23T05:20:24;-17616.84;;;-144.33;100.00
19843;BME280;10082;51.038;6.992;2023-05-23T05:22:57;-17616.84;;;-144.33;100.00
19843;BME280;10082;51.038;6.992;2023-05-23T05:25:24;-17616.84;;;-144.33;100.00
19843;BME280;10082;51.038;6.992;2023-05-23T05:28:01;-17616.84;;;-144.33;100.00
19843;BME280;10082;51.038;6.992;2023-05-23T05:30:32;-17616.84;;;-144.33;100.00
19843;BME280;10082;51.038;6.992;2023-05-23T05:33:00;-17616.84;;;-144.33;100.00
19843;BME280;10082;51.038;6.992;2023-05-23T05:35:29;-17616.84;;;-144.33;100.00
19843;BME280;10082;51.038;6.992;2023-05-23T05:37:57;-17616.84;;;-144.33;100.00
19843;BME280;10082;51.038;6.992;2023-05-23T05:40:28;-17616.84;;;-144.33;100.00
19843;BME280;10082;51.038;6.992;2023-05-23T05:42:55;-17616.84;;;-144.33;100.00
19843;BME280;10082;51.038;6.992;2023-05-23T05:45:24;-17616.84;;;-144.33;100.00
19843;BME280;10082;51.038;6.992;2023-05-23T05:47:52;-17616.84;;;-144.33;100.00
19843;BME280;10082;51.038;6.992;2023-05-23T05:50:21;-17616.84;;;-144.33;100.00
19843;BME280;10082;51.038;6.992;2023-05-23T05:52:49;-17616.84;;;-144.33;100.00
19843;BME280;10082;51.038;6.992;2023-05-23T05:55:16;-17616.84;;;-144.33;100.00
19843;BME280;10082;51.038;6.992;2023-05-23T05:57:47;-17616.84;;;-144.33;100.00
19843;BME280;10082;51.038;6.992;2023-05-23T06:00:15;-17616.84;;;-144.33;100.00
19843;BME280;10082;51.038;6.992;2023-05-23T06:02:52;-17616.84;;;-144.33;100.00
19843;BME280;10082;51.038;6.992;2023-05-23T06:05:41;-17616.84;;;-144.33;100.00
19843;BME280;10082;51.038;6.992;2023-05-23T06:08:10;-17616.84;;;-144.33;100.00
19843;BME280;10082;51.038;6.992;2023-05-23T06:10:37;-17616.84;;;-144.33;100.00
19843;BME280;10082;51.038;6.992;2023-05-23T06:13:04;-17616.84;;;-144.33;100.00
19843;BME280;10082;51.038;6.992;2023-05-23T06:15:32;-17616.84;;;-144.33;100.00
19843;BME280;10082;51.038;6.992;2023-05-23T06:18:01;-17616.84;;;-144.33;100.00
19843;BME280;10082;51.038;6.992;2023-05-23T06:20:30;-17616.84;;;-144.33;100.00
19843;BME280;10082;51.038;6.992;2023-05-23T06:23:00;-17616.84;;;-144.33;100.00
19843;BME280;10082;51.038;6.992;2023-05-23T06:25:30;-17616.84;;;-144.33;100.00
19843;BME280;10082;51.038;6.992;2023-05-23T06:27:57;-17616.84;;;-144.33;100.00
19843;BME280;10082;51.038;6.992;2023-05-23T06:30:25;-17616.84;;;-144.33;100.00
19843;BME280;10082;51.038;6.992;2023-05-23T06:32:53;-17616.84;;;-144.33;100.00
19843;BME280;10082;51.038;6.992;2023-05-23T06:35:22;-17616.84;;;-144.33;100.00
19843;BME280;10082;51.038;6.992;2023-05-23T06:37:49;-17616.84;;;-144.33;100.00
19843;BME280;10082;51.038;6.992;2023-05-23T06:40:17;-17616.84;;;-144.33;100.00
19843;BME280;10082;51.038;6.992;2023-05-23T06:42:44;-17616.84;;;-144.33;100.00
19843;BME280;10082;51.038;6.992;2023-05-23T06:45:23;-17616.84;;;-144.33;100.00
19843;BME280;10082;51.038;6.992;2023-05-23T06:47:50;-17616.84;;;-144.33;100.00
19843;BME280;10082;51.038;6.992;2023-05-23T06:50:18;-17616.84;;;-144.33;100.00
19843;BME280;10082;51.038;6.992;2023-05-23T06:52:48;-17616.84;;;-144.33;100.00
19843;BME280;10082;51.038;6.992;2023-05-23T06:55:15;-17616.84;;;-144.33;100.00
19843;BME280;10082;51.038;6.992;2023-05-23T06:57:45;-17616.84;;;-144.33;100.00
19843;BME280;10082;51.038;6.992;2023-05-23T07:00:15;-17616.84;;;-144.33;100.00
19843;BME280;10082;51.038;6.992;2023-05-23T07:02:59;-17616.84;;;-144.33;100.00
19843;BME280;10082;51.038;6.992;2023-05-23T07:05:28;-17616.84;;;-144.33;100.00
19843;BME280;10082;51.038;6.992;2023-05-23T07:07:59;-17616.84;;;-144.33;100.00
19843;BME280;10082;51.038;6.992;2023-05-23T07:10:26;-17616.84;;;-144.33;100.00
19843;BME280;10082;51.038;6.992;2023-05-23T07:12:59;-17616.84;;;-144.33;100.00
19843;BME280;10082;51.038;6.992;2023-05-23T07:15:28;-17616.84;;;-144.33;100.00
19843;BME280;10082;51.038;6.992;2023-05-23T07:18:04;-17616.84;;;-144.33;100.00
19843;BME280;10082;51.038;6.992;2023-05-23T07:20:32;-17616.84;;;-144.33;100.00
19843;BME280;10082;51.038;6.992;2023-05-23T07:25:55;-17616.84;;;-144.33;100.00
19843;BME280;10082;51.038;6.992;2023-05-23T07:28:25;-17616.84;;;-144.33;100.00
19843;BME280;10082;51.038;6.992;2023-05-23T07:30:54;-17616.84;;;-144.33;100.00
19843;BME280;10082;51.038;6.992;2023-05-23T07:33:21;-17616.84;;;-144.33;100.00
19843;BME280;10082;51.038;6.992;2023-05-23T07:35:49;-17616.84;;;-144.33;100.00
19843;BME280;10082;51.038;6.992;2023-05-23T07:38:16;-17616.84;;;-144.33;100.00
19843;BME280;10082;51.038;6.992;2023-05-23T07:40:44;-17616.84;;;-144.33;100.00
19843;BME280;10082;51.038;6.992;2023-05-23T07:43:12;-17616.84;;;-144.33;100.00
19843;BME280;10082;51.038;6.992;2023-05-23T07:45:46;-17616.84;;;-144.33;100.00
19843;BME280;10082;51.038;6.992;2023-05-23T07:48:13;-17616.84;;;-144.33;100.00
19843;BME280;10082;51.038;6.992;2023-05-23T07:50:41;-17616.84;;;-144.33;100.00
19843;BME280;10082;51.038;6.992;2023-05-23T07:53:08;-17616.84;;;-144.33;100.00
19843;BME280;10082;51.038;6.992;2023-05-23T07:55:35;-17616.84;;;-144.33;100.00
19843;BME280;10082;51.038;6.992;2023-05-23T07:58:02;-17616.84;;;-144.33;100.00
19843;BME280;10082;51.038;6.992;2023-05-23T08:00:33;-17616.84;;;-144.33;100.00
19843;BME280;10082;51.038;6.992;2023-05-23T08:03:09;-17616.84;;;-144.33;100.00
19843;BME280;10082;51.038;6.992;2023-05-23T08:05:48;-17616.84;;;-144.33;100.00
19843;BME280;10082;51.038;6.992;2023-05-23T08:08:15;-17616.84;;;-144.33;100.00
19843;BME280;10082;51.038;6.992;2023-05-23T08:10:43;-17616.84;;;-144.33;100.00
19843;BME280;10082;51.038;6.992;2023-05-23T08:13:17;-17616.84;;;-144.33;100.00
19843;BME280;10082;51.038;6.992;2023-05-23T08:16:07;-17616.84;;;-144.33;100.00
19843;BME280;10082;51.038;6.992;2023-05-23T08:18:34;-17616.84;;;-144.33;100.00
19843;BME280;10082;51.038;6.992;2023-05-23T08:21:01;-17616.84;;;-144.33;100.00
19843;BME280;10082;51.038;6.992;2023-05-23T08:23:29;-17616.84;;;-144.33;100.00
19843;BME280;10082;51.038;6.992;2023-05-23T08:25:56;-17616.84;;;-144.33;100.00
19843;BME280;10082;51.038;6.992;2023-05-23T08:28:24;-17616.84;;;-144.33;100.00
19843;BME280;10082;51.038;6.992;2023-05-23T08:30:53;-17616.84;;;-144.33;100.00
19843;BME280;10082;51.038;6.992;2023-05-23T08:33:23;-17616.84;;;-144.33;100.00
19843;BME280;10082;51.038;6.992;2023-05-23T08:35:54;-17616.84;;;-144.33;100.00
19843;BME280;10082;51.038;6.992;2023-05-23T08:38:21;-17616.84;;;-144.33;100.00
19843;BME280;10082;51.038;6.992;2023-05-23T08:41:19;-17616.84;;;-144.33;100.00
19843;BME280;10082;51.038;6.992;2023-05-23T08:43:49;-17616.84;;;-144.33;100.00
19843;BME280;10082;51.038;6.992;2023-05-23T08:46:25;-17616.84;;;-144.33;100.00
19843;BME280;10082;51.038;6.992;2023-05-23T08:48:55;-17616.84;;;-144.33;100.00
19843;BME280;10082;51.038;6.992;2023-05-23T08:51:26;-17616.84;;;-144.33;100.00
19843;BME280;10082;51.038;6.992;2023-05-23T08:53:57;-17616.84;;;-144.33;100.00
19843;BME280;10082;51.038;6.992;2023-05-23T08:56:26;-17616.84;;;-144.33;100.00
19843;BME280;10082;51.038;6.992;2023-05-23T08:58:55;-17616.84;;;-144.33;100.00
19843;BME280;10082;51.038;6.992;2023-05-23T09:01:23;-17616.84;;;-144.33;100.00
19843;BME280;10082;51.038;6.992;2023-05-23T09:03:57;-17616.84;;;-144.33;100.00
19843;BME280;10082;51.038;6.992;2023-05-23T09:06:50;-17616.84;;;-144.33;100.00
19843;BME280;10082;51.038;6.992;2023-05-23T09:09:18;-17616.84;;;-144.33;100.00
19843;BME280;10082;51.038;6.992;2023-05-23T09:11:46;-17616.84;;;-144.33;100.00
19843;BME280;10082;51.038;6.992;2023-05-23T09:14:13;-17616.84;;;-144.33;100.00
19843;BME280;10082;51.038;6.992;2023-05-23T09:16:45;-17616.84;;;-144.33;100.00
19843;BME280;10082;51.038;6.992;2023-05-23T09:19:17;-17616.84;;;-144.33;100.00
19843;BME280;10082;51.038;6.992;2023-05-23T09:21:52;-17616.84;;;-144.33;100.00
19843;BME280;10082;51.038;6.992;2023-05-23T09:24:32;-17616.84;;;-144.33;100.00
19843;BME280;10082;51.038;6.992;2023-05-23T09:27:00;-17616.84;;;-144.33;100.00
19843;BME280;10082;51.038;6.992;2023-05-23T09:29:27;-17616.84;;;-144.33;100.00
19843;BME280;10082;51.038;6.992;2023-05-23T09:31:59;-17616.84;;;-144.33;100.00
19843;BME280;10082;51.038;6.992;2023-05-23T09:34:30;-17616.84;;;-144.33;100.00
19843;BME280;10082;51.038;6.992;2023-05-23T09:36:57;-17616.84;;;-144.33;100.00
19843;BME280;10082;51.038;6.992;2023-05-23T09:39:24;-17616.84;;;-144.33;100.00
19843;BME280;10082;51.038;6.992;2023-05-23T09:41:51;-17616.84;;;-144.33;100.00
19843;BME280;10082;51.038;6.992;2023-05-23T09:44:22;-17616.84;;;-144.33;100.00
19843;BME280;10082;51.038;6.992;2023-05-23T09:46:50;-17616.84;;;-144.33;100.00
19843;BME280;10082;51.038;6.992;2023-05-23T09:49:19;-17616.84;;;-144.33;100.00
19843;BME280;10082;51.038;6.992;2023-05-23T09:51:57;-17616.84;;;-144.33;100.00
19843;BME280;10082;51.038;6.992;2023-05-23T09:54:25;-17616.84;;;-144.33;100.00
19843;BME280;10082;51.038;6.992;2023-05-23T09:56:52;-17616.84;;;-144.33;100.00
19843;BME280;10082;51.038;6.992;2023-05-23T09:59:21;-17616.84;;;-144.33;100.00
19843;BME280;10082;51.038;6.992;2023-05-23T10:01:50;-17616.84;;;-144.33;100.00
19843;BME280;10082;51.038;6.992;2023-05-23T10:04:20;-17616.84;;;-144.33;100.00
19843;BME280;10082;51.038;6.992;2023-05-23T10:06:50;-17616.84;;;-144.33;100.00
19843;BME280;10082;51.038;6.992;2023-05-23T10:09:22;-17616.84;;;-144.33;100.00
19843;BME280;10082;51.038;6.992;2023-05-23T10:15:13;-17616.84;;;-144.33;100.00
19843;BME280;10082;51.038;6.992;2023-05-23T10:17:52;-17616.84;;;-144.33;100.00
19843;BME280;10082;51.038;6.992;2023-05-23T10:20:24;-17616.84;;;-144.33;100.00
19843;BME280;10082;51.038;6.992;2023-05-23T10:22:58;-17616.84;;;-144.33;100.00
19843;BME280;10082;51.038;6.992;2023-05-23T10:25:27;-17616.84;;;-144.33;100.00
19843;BME280;10082;51.038;6.992;2023-05-23T10:27:55;-17615.41;;;-144.33;100.00
19843;BME280;10082;51.038;6.992;2023-05-23T10:30:29;-14622.31;;;-144.33;100.00
19843;BME280;10082;51.038;6.992;2023-05-23T10:32:58;-9878.47;;;-144.33;100.00
19843;BME280;10082;51.038;6.992;2023-05-23T10:35:39;-2876.84;;;-144.33;100.00
19843;BME280;10082;51.038;6.992;2023-05-23T10:38:25;-5879.09;;;-144.33;100.00
19843;BME280;10082;51.038;6.992;2023-05-23T10:41:02;-5879.09;;;-144.33;100.00
19843;BME280;10082;51.038;6.992;2023-05-23T10:43:43;-5879.09;;;-144.33;100.00
19843;BME280;10082;51.038;6.992;2023-05-23T10:46:12;-8629.13;;;-144.33;100.00
19843;BME280;10082;51.038;6.992;2023-05-23T10:48:41;-8629.13;;;-144.33;100.00
19843;BME280;10082;51.038;6.992;2023-05-23T10:51:10;-9878.47;;;-144.33;100.00
19843;BME280;10082;51.038;6.992;2023-05-23T10:53:38;-11626.88;;;-144.33;100.00
19843;BME280;10082;51.038;6.992;2023-05-23T10:56:08;-12875.25;;;-144.33;100.00
19843;BME280;10082;51.038;6.992;2023-05-23T10:58:38;-13624.09;;;-144.33;100.00
19843;BME280;10082;51.038;6.992;2023-05-23T11:01:06;-14372.78;;;-144.33;100.00
19843;BME280;10082;51.038;6.992;2023-05-23T11:03:35;-13873.69;;;-144.33;100.00
19843;BME280;10082;51.038;6.992;2023-05-23T11:06:06;-12625.63;;;-144.33;100.00
19843;BME280;10082;51.038;6.992;2023-05-23T11:08:38;-12375.97;;;-144.33;100.00
19843;BME280;10082;51.038;6.992;2023-05-23T11:11:08;-12625.63;;;-144.33;100.00
19843;BME280;10082;51.038;6.992;2023-05-23T11:13:56;-12625.63;;;-144.33;100.00
19843;BME280;10082;51.038;6.992;2023-05-23T11:16:26;-12625.63;;;-144.33;100.00
19843;BME280;10082;51.038;6.992;2023-05-23T11:19:21;-12875.25;;;-144.33;100.00
19843;BME280;10082;51.038;6.992;2023-05-23T11:21:53;-13124.88;;;-144.33;100.00
19843;BME280;10082;51.038;6.992;2023-05-23T11:24:21;-13873.69;;;-144.33;100.00
19843;BME280;10082;51.038;6.992;2023-05-23T11:26:56;-14622.31;;;-144.33;100.00
19843;BME280;10082;51.038;6.992;2023-05-23T11:29:26;-15620.25;;;-144.33;100.00
19843;BME280;10082;51.038;6.992;2023-05-23T11:31:54;-15121.31;;;-144.33;100.00
19843;BME280;10082;51.038;6.992;2023-05-23T11:34:23;-14622.31;;;-144.33;100.00
19843;BME280;10082;51.038;6.992;2023-05-23T11:36:54;-14372.78;;;-144.33;100.00
19843;BME280;10082;51.038;6.992;2023-05-23T11:39:22;-13374.50;;;-144.33;100.00
19843;BME280;10082;51.038;6.992;2023-05-23T11:41:59;-12126.28;;;-144.33;100.00
19843;BME280;10082;51.038;6.992;2023-05-23T11:44:26;-8379.19;;;-144.33;100.00
19843;BME280;10082;51.038;6.992;2023-05-23T11:47:01;-5128.75;;;-144.33;100.00
19843;BME280;10082;51.038;6.992;2023-05-23T11:49:29;-1374.81;;;-144.33;100.00
19843;BME280;10082;51.038;6.992;2023-05-23T11:51:57;5391.50;;;-144.33;100.00
19843;BME280;10082;51.038;6.992;2023-05-23T11:54:25;8904.63;;;-144.33;100.00
19843;BME280;10082;51.038;6.992;2023-05-23T11:56:52;24753.19;;;-144.33;100.00
19843;BME280;10082;51.038;6.992;2023-05-23T11:59:23;44464.75;;;-144.33;100.00
19843;BME280;10082;51.038;6.992;2023-05-23T12:01:51;66312.88;;;-144.33;100.00
19843;BME280;10082;51.038;6.992;2023-05-23T12:04:18;76515.78;;;-144.33;100.00
19843;BME280;10082;51.038;6.992;2023-05-23T12:06:47;66822.38;;;-144.33;100.00
19843;BME280;10082;51.038;6.992;2023-05-23T12:09:14;61221.16;;;-144.33;100.00
19843;BME280;10082;51.038;6.992;2023-05-23T12:11:43;65294.00;;;-144.33;100.00
19843;BME280;10082;51.038;6.992;2023-05-23T12:14:13;72431.50;;;-144.33;100.00
19843;BME280;10082;51.038;6.992;2023-05-23T12:16:44;78815.03;;;-144.33;100.00
19843;BME280;10082;51.038;6.992;2023-05-23T12:19:13;85464.75;;;-144.33;100.00
19843;BME280;10082;51.038;6.992;2023-05-23T12:21:43;100338.31;;;-144.33;100.00
19843;BME280;10082;51.038;6.992;2023-05-23T12:24:14;94433.63;;;-144.33;100.00
19843;BME280;10082;51.038;6.992;2023-05-23T12:26:46;106408.41;;;-144.33;100.00
19843;BME280;10082;51.038;6.992;2023-05-23T12:29:13;112171.53;;;-144.33;100.00
19843;BME280;10082;51.038;6.992;2023-05-23T12:31:41;103422.44;;;-144.33;100.00
19843;BME280;10082;51.038;6.992;2023-05-23T12:34:10;100338.31;;;-144.33;100.00
19843;BME280;10082;51.038;6.992;2023-05-23T12:36:37;90587.38;;;-144.33;100.00
19843;BME280;10082;51.038;6.992;2023-05-23T12:39:07;98540.31;;;-144.33;100.00
19843;BME280;10082;51.038;6.992;2023-05-23T12:41:34;104447.00;;;-144.33;100.00